Time;durP1;ratioP1;P1;durP2;ratioP2;P2;SDS_P1;SDS_P2;PMS_P1;PMS_P2;Temp;Humidity;BMP_temperature;BMP_pressure;BME280_temperature;BME280_humidity;BME280_pressure;Samples;Min_cycle;Max_cycle;Signal;HPM_P1;HPM_P2
2021/10/07 00:01:59;;;;;;;;;2.75;2.75;;;;;22.33;43.10;102095.44;5077365;27;45280;-56
2021/10/07 00:04:26;;;;;;;;;3.50;1.75;;;;;22.32;43.01;102101.69;5077701;27;45590;-56
2021/10/07 00:06:52;;;;;;;;;2.75;2.75;;;;;22.31;43.18;102106.09;5077494;27;45458;-54
2021/10/07 00:09:18;;;;;;;;;2.00;2.00;;;;;22.32;42.94;102104.31;5077596;27;45258;-56
2021/10/07 00:11:44;;;;;;;;;3.00;2.00;;;;;22.31;43.24;102108.72;5077861;27;45214;-54
2021/10/07 00:14:09;;;;;;;;;3.00;1.50;;;;;22.31;42.95;102102.59;5078782;28;45474;-55
2021/10/07 00:16:35;;;;;;;;;3.00;2.00;;;;;22.31;42.80;102102.59;5086365;27;46790;-53
2021/10/07 00:19:00;;;;;;;;;2.50;1.75;;;;;22.31;43.09;102107.88;5088793;27;45323;-56
2021/10/07 00:21:26;;;;;;;;;3.00;2.00;;;;;22.29;42.90;102107.94;5080048;28;45326;-55
2021/10/07 00:24:11;;;;;;;;;2.75;1.00;;;;;22.30;42.87;102103.53;5079500;27;45235;-56
2021/10/07 00:26:37;;;;;;;;;3.25;1.50;;;;;22.31;42.89;102102.59;5078239;27;47394;-56
2021/10/07 00:31:51;;;;;;;;;1.75;1.50;;;;;22.29;43.16;102112.38;5092511;27;44776;-56
2021/10/07 00:37:09;;;;;;;;;2.75;1.50;;;;;22.28;43.05;102115.94;5092868;27;45302;-54
2021/10/07 00:39:34;;;;;;;;;1.75;1.75;;;;;22.28;43.02;102118.56;5095478;27;45641;-56
2021/10/07 00:42:00;;;;;;;;;2.25;2.25;;;;;22.28;43.11;102118.56;5093898;27;45345;-56
2021/10/07 00:44:31;;;;;;;;;1.75;1.25;;;;;22.27;43.02;102114.22;5090609;27;44914;-55
2021/10/07 00:46:59;;;;;;;;;1.00;1.00;;;;;22.24;42.96;102110.78;5091654;27;46523;-53
2021/10/07 00:49:26;;;;;;;;;2.75;2.00;;;;;22.26;43.44;102118.66;5090878;27;45283;-55
2021/10/07 00:51:53;;;;;;;;;2.75;2.75;;;;;22.26;43.00;102121.28;5096329;27;45337;-54
2021/10/07 00:54:21;;;;;;;;;1.00;1.00;;;;;22.24;43.19;102120.50;5090676;28;45190;-57
2021/10/07 00:56:47;;;;;;;;;2.00;2.00;;;;;22.24;42.97;102120.50;5087116;27;45404;-53
2021/10/07 00:59:13;;;;;;;;;1.00;1.00;;;;;22.24;42.97;102116.06;5087801;28;45385;-54
2021/10/07 01:01:39;;;;;;;;;2.00;2.00;;;;;22.24;43.12;102120.50;5080752;27;45386;-55
2021/10/07 01:04:04;;;;;;;;;1.00;1.00;;;;;22.24;43.11;102118.69;5082615;27;45419;-55
2021/10/07 01:06:31;;;;;;;;;2.25;1.00;;;;;22.23;43.13;102119.63;5082282;27;46415;-55
2021/10/07 01:08:58;;;;;;;;;1.75;1.75;;;;;22.22;43.05;102115.25;5076793;28;45373;-56
2021/10/07 01:11:23;;;;;;;;;5.00;2.00;;;;;22.23;43.10;102116.97;5077062;27;45288;-53
2021/10/07 01:13:48;;;;;;;;;2.00;2.00;;;;;22.21;42.93;102113.53;5077131;27;45269;-54
2021/10/07 01:16:16;;;;;;;;;1.00;1.00;;;;;22.20;43.17;102109.22;5078673;27;46404;-56
2021/10/07 01:18:42;;;;;;;;;2.00;1.25;;;;;22.19;43.25;102106.59;5080284;28;45393;-54
2021/10/07 01:21:11;;;;;;;;;1.00;1.00;;;;;22.20;43.27;102110.97;5076871;27;45462;-54
2021/10/07 01:23:41;;;;;;;;;2.00;2.00;;;;;22.21;42.85;102117.97;5076817;27;45558;-54
2021/10/07 01:26:11;;;;;;;;;2.00;2.00;;;;;22.20;43.09;102118.91;5076297;27;46228;-55
2021/10/07 01:28:38;;;;;;;;;1.00;1.00;;;;;22.20;43.22;102113.63;5076347;27;45727;-56
2021/10/07 01:31:05;;;;;;;;;2.75;1.75;;;;;22.19;43.04;102112.78;5076589;28;45430;-53
2021/10/07 01:33:30;;;;;;;;;2.50;1.25;;;;;22.19;43.21;102115.41;5080322;27;45302;-52
2021/10/07 01:35:58;;;;;;;;;3.50;3.00;;;;;22.17;43.20;102114.59;5095636;27;46128;-53
2021/10/07 01:38:23;;;;;;;;;2.00;0.75;;;;;22.15;43.10;102111.16;5087978;28;45330;-55
2021/10/07 01:40:49;;;;;;;;;1.75;1.75;;;;;22.18;43.25;102111.03;5078930;27;45433;-55
2021/10/07 01:43:14;;;;;;;;;1.00;1.00;;;;;22.17;43.26;102114.59;5076735;27;45486;-53
2021/10/07 01:45:40;;;;;;;;;1.50;1.00;;;;;22.17;43.21;102119.88;5076396;27;46418;-54
2021/10/07 01:48:05;;;;;;;;;2.25;2.25;;;;;22.16;43.25;102115.53;5077839;27;45363;-54
2021/10/07 01:50:31;;;;;;;;;2.00;2.00;;;;;22.17;43.19;102119.00;5080672;27;45308;-54
2021/10/07 01:52:56;;;;;;;;;2.00;1.00;;;;;22.16;43.20;102114.69;5084677;27;45638;-55
2021/10/07 01:55:22;;;;;;;;;2.00;2.00;;;;;22.16;43.46;102112.03;5097607;27;45422;-55
2021/10/07 01:57:47;;;;;;;;;2.50;2.00;;;;;22.14;43.27;102109.44;5089504;28;45370;-55
2021/10/07 02:00:13;;;;;;;;;2.00;2.00;;;;;22.14;43.20;102114.72;5081366;28;45331;-55
2021/10/07 02:02:39;;;;;;;;;2.00;2.00;;;;;22.15;43.25;102115.59;5082727;27;45237;-54
2021/10/07 02:05:05;;;;;;;;;1.75;1.75;;;;;22.13;43.16;102115.66;5079960;27;46448;-54
2021/10/07 02:07:31;;;;;;;;;1.50;1.50;;;;;22.14;43.35;102111.25;5079350;27;45266;-56
2021/10/07 02:09:56;;;;;;;;;1.00;1.00;;;;;22.14;43.17;102117.38;5079144;27;45243;-56
2021/10/07 02:12:22;;;;;;;;;2.25;2.00;;;;;22.13;43.25;102107.72;5079247;27;45651;-56
2021/10/07 02:14:47;;;;;;;;;1.00;1.00;;;;;22.13;43.32;102106.88;5078897;27;45507;-53
2021/10/07 02:17:12;;;;;;;;;2.75;2.50;;;;;22.12;43.39;102106.00;5079102;27;45327;-54
2021/10/07 02:19:38;;;;;;;;;3.00;2.00;;;;;22.13;43.24;102102.44;5079011;27;45432;-55
2021/10/07 02:22:04;;;;;;;;;1.00;1.00;;;;;22.12;43.31;102100.72;5079061;27;45383;-54
2021/10/07 02:24:29;;;;;;;;;1.00;1.00;;;;;22.12;43.22;102100.72;5079030;27;45429;-55
2021/10/07 02:26:54;;;;;;;;;1.00;1.00;;;;;22.11;43.34;102095.53;5078913;27;45378;-54
2021/10/07 02:29:20;;;;;;;;;1.25;1.25;;;;;22.11;43.52;102093.72;5079092;27;45504;-56
2021/10/07 02:31:45;;;;;;;;;2.75;1.00;;;;;22.11;43.32;102096.38;5079620;27;45560;-56
2021/10/07 02:34:10;;;;;;;;;2.75;2.00;;;;;22.10;43.46;102094.69;5078925;27;51751;-55
2021/10/07 02:36:36;;;;;;;;;4.00;2.00;;;;;22.10;43.29;102097.31;5079584;27;45375;-56
2021/10/07 02:39:02;;;;;;;;;1.50;1.50;;;;;22.09;43.37;102096.44;5079140;27;45315;-56
2021/10/07 02:41:28;;;;;;;;;3.00;2.00;;;;;22.09;43.37;102090.31;5078734;27;45295;-54
2021/10/07 02:43:53;;;;;;;;;3.00;1.75;;;;;22.09;43.21;102090.31;5078690;27;46169;-54
2021/10/07 02:46:19;;;;;;;;;2.25;1.00;;;;;22.09;43.40;102092.97;5079774;27;45398;-55
2021/10/07 02:48:44;;;;;;;;;1.00;1.00;;;;;22.08;43.38;102091.25;5080310;27;45263;-55
2021/10/07 02:51:10;;;;;;;;;1.50;1.50;;;;;22.07;43.68;102086.88;5079782;27;45300;-56
2021/10/07 02:53:37;;;;;;;;;1.00;1.00;;;;;22.08;43.32;102093.88;5078975;27;46587;-56
2021/10/07 02:56:04;;;;;;;;;2.25;2.00;;;;;22.08;43.35;102099.16;5078672;27;45464;-53
2021/10/07 02:58:29;;;;;;;;;1.00;1.00;;;;;22.06;43.55;102090.44;5078895;27;45336;-55
2021/10/07 03:00:55;;;;;;;;;1.25;1.25;;;;;22.07;43.48;102094.78;5086419;27;45837;-55
2021/10/07 03:03:20;;;;;;;;;2.50;1.00;;;;;22.06;43.41;102087.78;5080605;27;46026;-55
2021/10/07 03:05:46;;;;;;;;;0.50;0.50;;;;;22.05;43.33;102091.34;5080552;27;45425;-55
2021/10/07 03:08:12;;;;;;;;;2.00;2.00;;;;;22.06;43.51;102090.44;5079203;27;45326;-53
2021/10/07 03:10:37;;;;;;;;;3.00;1.25;;;;;22.06;43.35;102091.28;5079403;27;45530;-56
2021/10/07 03:13:02;;;;;;;;;2.50;1.00;;;;;22.06;43.29;102098.34;5078550;27;46007;-53
2021/10/07 03:15:28;;;;;;;;;3.00;2.25;;;;;22.04;43.25;102098.44;5078395;27;45394;-55
2021/10/07 03:17:53;;;;;;;;;2.75;1.00;;;;;22.04;43.62;102105.47;5097030;27;45279;-56
2021/10/07 03:20:18;;;;;;;;;1.25;1.25;;;;;22.03;43.50;102098.47;5100447;27;45617;-55
2021/10/07 03:22:44;;;;;;;;;3.25;1.25;;;;;22.05;43.50;102109.84;5093632;27;45235;-56
2021/10/07 03:25:11;;;;;;;;;1.00;1.00;;;;;22.03;43.62;102104.63;5086583;27;45590;-55
2021/10/07 03:27:37;;;;;;;;;2.75;1.25;;;;;22.03;43.50;102107.28;5089418;27;45186;-56
2021/10/07 03:30:04;;;;;;;;;3.00;2.00;;;;;22.04;43.51;102108.13;5088097;27;45489;-52
2021/10/07 03:32:29;;;;;;;;;2.25;1.75;;;;;22.02;43.60;102104.69;5100813;27;48171;-52
2021/10/07 03:34:54;;;;;;;;;2.50;2.50;;;;;22.03;43.44;102103.75;5095805;27;45286;-54
2021/10/07 03:37:20;;;;;;;;;1.00;1.00;;;;;22.01;43.32;102111.75;5119748;27;44863;-56
2021/10/07 03:39:45;;;;;;;;;1.00;1.00;;;;;22.02;43.41;102112.59;5103021;27;44880;-57
2021/10/07 03:42:10;;;;;;;;;1.00;1.00;;;;;22.01;43.52;102106.47;5103666;27;45250;-53
2021/10/07 03:44:36;;;;;;;;;1.25;1.25;;;;;22.01;43.63;102109.13;5090038;27;45377;-56
2021/10/07 03:47:01;;;;;;;;;1.00;1.00;;;;;22.00;43.54;102106.50;5087224;27;45303;-56
2021/10/07 03:49:27;;;;;;;;;1.00;1.00;;;;;22.02;43.47;102109.97;5087558;27;45426;-55
2021/10/07 03:51:52;;;;;;;;;0.75;0.75;;;;;22.01;43.55;102118.78;5094181;27;45931;-55
2021/10/07 03:54:17;;;;;;;;;2.00;1.00;;;;;22.01;43.51;102124.06;5099971;27;45923;-54
2021/10/07 03:56:42;;;;;;;;;1.50;1.50;;;;;22.01;43.50;102121.44;5091880;27;44760;-56
2021/10/07 03:59:08;;;;;;;;;1.50;1.50;;;;;22.00;43.65;102119.72;5087228;27;45653;-54
2021/10/07 04:01:33;;;;;;;;;1.75;1.75;;;;;22.01;43.71;102122.31;5085017;27;46097;-53
2021/10/07 04:03:59;;;;;;;;;1.00;1.00;;;;;22.00;43.71;102119.72;5085527;27;45846;-52
2021/10/07 04:06:24;;;;;;;;;1.00;1.00;;;;;22.00;43.57;102127.63;5082260;27;45208;-54
2021/10/07 04:08:49;;;;;;;;;1.75;1.75;;;;;21.99;43.71;102132.06;5078289;27;45688;-55
2021/10/07 04:11:15;;;;;;;;;1.00;1.00;;;;;21.99;43.58;102131.22;5083552;28;46311;-54
2021/10/07 04:13:41;;;;;;;;;3.25;2.50;;;;;21.99;43.53;102126.78;5090870;27;45204;-55
2021/10/07 04:16:06;;;;;;;;;3.00;2.00;;;;;21.99;43.75;102129.44;5085364;28;45368;-57
2021/10/07 04:18:32;;;;;;;;;1.00;1.00;;;;;21.98;43.45;102130.34;5079510;27;45726;-56
2021/10/07 04:20:57;;;;;;;;;1.50;1.50;;;;;21.98;43.45;102133.00;5077615;27;47315;-53
2021/10/07 04:23:23;;;;;;;;;4.25;2.25;;;;;21.98;43.72;102138.28;5076891;27;45489;-55
2021/10/07 04:25:48;;;;;;;;;1.00;1.00;;;;;21.98;43.65;102134.78;5076990;27;45641;-57
2021/10/07 04:28:13;;;;;;;;;2.00;2.00;;;;;21.98;43.86;102138.28;5077363;27;45402;-54
2021/10/07 04:30:40;;;;;;;;;1.50;1.50;;;;;21.97;43.92;102128.63;5075667;28;46085;-54
2021/10/07 04:33:09;;;;;;;;;1.00;1.00;;;;;21.97;43.78;102133.06;5076873;27;45748;-56
2021/10/07 04:35:35;;;;;;;;;1.25;1.25;;;;;21.96;43.96;102132.19;5077396;27;45259;-54
2021/10/07 04:38:01;;;;;;;;;1.00;1.00;;;;;21.97;43.63;102128.63;5076990;27;45454;-56
2021/10/07 04:40:27;;;;;;;;;1.50;1.50;;;;;21.95;43.88;102127.81;5075274;28;48143;-55
2021/10/07 04:42:52;;;;;;;;;6.00;2.00;;;;;21.97;43.64;102133.91;5076561;27;45640;-53
2021/10/07 04:45:18;;;;;;;;;2.00;1.00;;;;;21.97;43.89;102125.16;5076764;27;45404;-54
2021/10/07 04:47:43;;;;;;;;;1.25;1.25;;;;;21.96;43.79;102133.97;5076786;27;45643;-55
2021/10/07 04:50:09;;;;;;;;;1.00;1.00;;;;;21.94;43.68;102134.03;5076760;27;45615;-55
2021/10/07 04:52:35;;;;;;;;;3.00;1.00;;;;;21.96;44.23;102136.63;5076664;27;45340;-56
2021/10/07 04:55:00;;;;;;;;;1.00;1.00;;;;;21.95;43.86;102134.91;5077013;27;45437;-56
2021/10/07 04:57:26;;;;;;;;;1.75;1.75;;;;;21.93;43.96;102132.34;5077194;27;45392;-54
2021/10/07 04:59:51;;;;;;;;;1.00;1.00;;;;;21.93;43.95;102133.19;5076611;27;47216;-56
2021/10/07 05:02:17;;;;;;;;;2.00;2.00;;;;;21.93;43.92;102127.06;5077677;27;45441;-54
2021/10/07 05:04:43;;;;;;;;;3.00;1.00;;;;;21.94;43.98;102126.09;5076075;27;45457;-53
2021/10/07 05:07:08;;;;;;;;;2.00;2.00;;;;;21.93;43.76;102127.91;5077228;27;45212;-56
2021/10/07 05:09:33;;;;;;;;;2.00;2.00;;;;;21.91;43.85;102132.38;5094404;27;47102;-54
2021/10/07 05:11:59;;;;;;;;;1.25;1.25;;;;;21.93;43.99;102141.09;5081236;27;45271;-57
2021/10/07 05:14:24;;;;;;;;;4.00;1.75;;;;;21.93;43.93;102148.19;5093874;27;45164;-55
2021/10/07 05:16:49;;;;;;;;;1.25;1.00;;;;;21.93;43.88;102153.44;5076979;27;45157;-52
2021/10/07 05:19:15;;;;;;;;;2.50;2.00;;;;;21.93;44.02;102151.66;5076105;27;46244;-53
2021/10/07 05:21:40;;;;;;;;;1.75;1.00;;;;;21.92;43.78;102152.56;5076515;27;45429;-56
2021/10/07 05:24:06;;;;;;;;;2.00;2.00;;;;;21.92;44.04;102152.56;5076520;28;45350;-56
2021/10/07 05:26:31;;;;;;;;;2.00;2.00;;;;;21.92;43.93;102157.84;5093241;27;45259;-55
2021/10/07 05:28:56;;;;;;;;;1.75;1.75;;;;;21.92;44.09;102160.50;5080155;27;45389;-57
2021/10/07 05:31:22;;;;;;;;;3.00;3.00;;;;;21.90;44.08;102156.22;5079553;27;46662;-56
2021/10/07 05:33:47;;;;;;;;;2.00;1.25;;;;;21.90;44.56;102162.34;5079834;27;45594;-56
2021/10/07 05:36:13;;;;;;;;;3.75;3.75;;;;;21.90;44.04;102159.69;5080015;27;45442;-56
2021/10/07 05:38:38;;;;;;;;;2.75;1.25;;;;;21.90;44.06;102164.97;5079970;27;46149;-56
2021/10/07 05:41:04;;;;;;;;;1.75;1.50;;;;;21.90;44.06;102170.25;5079902;27;45492;-56
2021/10/07 05:43:30;;;;;;;;;1.50;1.50;;;;;21.88;44.24;102165.97;5079770;27;45789;-56
2021/10/07 05:45:55;;;;;;;;;1.00;1.00;;;;;21.90;44.60;102169.41;5079864;27;45542;-54
2021/10/07 05:48:20;;;;;;;;;4.25;2.00;;;;;21.90;44.39;102174.69;5079639;27;47992;-56
2021/10/07 05:50:46;;;;;;;;;1.75;1.75;;;;;21.89;44.19;102168.53;5079314;27;45418;-56
2021/10/07 05:53:11;;;;;;;;;2.00;2.00;;;;;21.90;44.24;102174.69;5080548;27;45470;-56
2021/10/07 05:55:36;;;;;;;;;2.00;2.00;;;;;21.89;44.32;102171.16;5080572;27;45593;-55
2021/10/07 05:58:02;;;;;;;;;2.00;2.00;;;;;21.87;44.58;102173.03;5083717;27;45295;-56
2021/10/07 06:00:27;;;;;;;;;2.75;2.00;;;;;21.88;44.31;102177.38;5083508;28;45323;-57
2021/10/07 06:02:52;;;;;;;;;2.00;2.00;;;;;21.89;44.33;102178.25;5081483;27;45240;-55
2021/10/07 06:05:18;;;;;;;;;1.00;1.00;;;;;21.87;44.17;102173.03;5079498;27;45633;-52
2021/10/07 06:07:44;;;;;;;;;2.25;2.25;;;;;21.86;44.44;102179.22;5082733;28;46499;-53
2021/10/07 06:10:10;;;;;;;;;2.00;1.00;;;;;21.87;44.64;102183.59;5089103;27;45219;-55
2021/10/07 06:12:36;;;;;;;;;2.75;1.50;;;;;21.87;44.64;102185.34;5091210;27;45243;-55
2021/10/07 06:15:02;;;;;;;;;2.00;2.00;;;;;21.87;44.44;102180.94;5092803;28;44926;-55
2021/10/07 06:17:27;;;;;;;;;2.00;2.00;;;;;21.88;44.25;102187.91;5087551;27;45514;-54
2021/10/07 06:19:57;;;;;;;;;1.75;1.00;;;;;21.87;44.24;102188.88;5082479;27;45378;-55
2021/10/07 06:22:22;;;;;;;;;2.50;2.50;;;;;21.87;44.49;102193.28;5080626;27;45456;-55
2021/10/07 06:24:47;;;;;;;;;1.75;1.75;;;;;21.86;44.71;102187.16;5079566;28;45614;-55
2021/10/07 06:27:13;;;;;;;;;3.00;2.25;;;;;21.86;44.30;102191.56;5079168;27;46205;-55
2021/10/07 06:29:38;;;;;;;;;2.00;2.00;;;;;21.86;44.37;102189.78;5078779;27;45315;-54
2021/10/07 06:32:04;;;;;;;;;2.00;2.00;;;;;21.86;44.26;102199.47;5078933;27;45232;-53
2021/10/07 06:34:29;;;;;;;;;3.25;3.00;;;;;21.86;44.48;102196.81;5079427;27;45324;-53
2021/10/07 06:36:55;;;;;;;;;3.00;3.00;;;;;21.84;44.42;102190.75;5078910;27;46324;-55
2021/10/07 06:39:20;;;;;;;;;1.75;1.75;;;;;21.86;44.58;102192.44;5078599;27;45357;-54
2021/10/07 06:41:47;;;;;;;;;2.00;2.00;;;;;21.86;44.18;102195.06;5079363;27;45315;-55
2021/10/07 06:44:13;;;;;;;;;2.00;2.00;;;;;21.86;44.44;102192.44;5081811;27;45521;-53
2021/10/07 06:46:38;;;;;;;;;3.75;2.00;;;;;21.86;44.41;102195.06;5089829;27;46038;-55
2021/10/07 06:49:03;;;;;;;;;2.00;1.50;;;;;21.85;44.52;102190.72;5093804;27;45251;-53
2021/10/07 06:51:29;;;;;;;;;3.00;2.00;;;;;21.86;44.37;102183.63;5087053;28;45262;-54
2021/10/07 06:53:57;;;;;;;;;3.75;3.00;;;;;21.85;44.55;102190.72;5082587;27;45332;-54
2021/10/07 06:56:24;;;;;;;;;4.00;2.50;;;;;21.87;44.62;102194.16;5079052;27;46588;-52
2021/10/07 06:58:52;;;;;;;;;1.00;1.00;;;;;21.86;44.61;102199.47;5078402;27;45314;-54
2021/10/07 07:01:26;;;;;;;;;1.25;1.25;;;;;21.87;44.44;102207.34;5078942;27;45498;-54
2021/10/07 07:03:55;;;;;;;;;4.50;3.00;;;;;21.87;44.34;102206.47;5085965;27;45331;-52
2021/10/07 07:06:24;;;;;;;;;2.00;2.00;;;;;21.85;44.44;102209.19;5085568;27;45525;-54
2021/10/07 07:08:49;;;;;;;;;5.25;2.00;;;;;21.85;44.23;102209.19;5085280;27;45650;-55
2021/10/07 07:11:14;;;;;;;;;2.50;2.00;;;;;21.86;44.35;102210.91;5086329;27;45280;-56
2021/10/07 07:13:40;;;;;;;;;3.50;2.00;;;;;21.86;44.54;102216.19;5083850;27;45611;-54
2021/10/07 07:16:06;;;;;;;;;2.00;2.00;;;;;21.86;44.56;102213.53;5082271;27;45500;-55
2021/10/07 07:18:31;;;;;;;;;2.25;2.25;;;;;21.85;44.50;102219.75;5085008;27;45173;-53
2021/10/07 07:20:57;;;;;;;;;2.00;2.00;;;;;21.86;44.48;102224.09;5090345;27;45281;-56
2021/10/07 07:23:22;;;;;;;;;2.50;1.00;;;;;21.85;44.60;102222.38;5080623;27;45489;-55
2021/10/07 07:25:47;;;;;;;;;2.00;2.00;;;;;21.87;44.43;102220.53;5080448;27;46084;-54
2021/10/07 07:28:13;;;;;;;;;2.00;2.00;;;;;21.84;44.39;102218.00;5079312;27;45464;-53
2021/10/07 07:30:39;;;;;;;;;4.25;2.50;;;;;21.87;44.38;102220.53;5078581;27;45315;-52
2021/10/07 07:33:04;;;;;;;;;4.25;3.00;;;;;21.87;44.58;102232.88;5078563;27;45639;-53
2021/10/07 07:35:31;;;;;;;;;2.75;2.50;;;;;21.88;44.68;102224.88;5078114;27;46199;-54
2021/10/07 07:37:58;;;;;;;;;3.00;3.00;;;;;21.87;44.67;102228.47;5081337;27;45841;-52
2021/10/07 07:40:23;;;;;;;;;5.25;3.75;;;;;21.88;44.50;102224.03;5084155;27;45318;-52
2021/10/07 07:42:49;;;;;;;;;4.00;3.00;;;;;21.88;44.74;102227.50;5083137;28;45262;-54
2021/10/07 07:45:14;;;;;;;;;4.00;4.00;;;;;21.88;44.57;102226.66;5081963;27;46891;-54
2021/10/07 07:47:41;;;;;;;;;3.00;2.00;;;;;21.89;44.69;102223.13;5077886;27;50133;-53
2021/10/07 07:50:09;;;;;;;;;3.50;3.50;;;;;21.87;44.60;102220.53;5079880;27;45357;-51
2021/10/07 07:52:34;;;;;;;;;3.00;2.50;;;;;21.89;44.73;102242.44;5078073;27;45381;-54
2021/10/07 07:55:00;;;;;;;;;4.00;2.50;;;;;21.90;44.49;102238.88;5077707;27;47014;-52
2021/10/07 07:57:25;;;;;;;;;4.75;3.00;;;;;21.89;44.57;102242.44;5077575;27;45525;-54
2021/10/07 07:59:50;;;;;;;;;4.00;4.00;;;;;21.90;44.54;102232.75;5078421;27;45437;-54
2021/10/07 08:02:16;;;;;;;;;2.75;2.75;;;;;21.90;44.59;102232.75;5079265;27;45539;-53
2021/10/07 08:04:42;;;;;;;;;3.00;3.00;;;;;21.91;44.76;102245.88;5079404;27;45476;-53
2021/10/07 08:07:08;;;;;;;;;3.00;2.25;;;;;21.91;44.67;102251.16;5078576;27;45504;-51
2021/10/07 08:09:35;;;;;;;;;3.25;2.00;;;;;21.92;44.61;102246.75;5078371;28;45231;-52
2021/10/07 08:12:00;;;;;;;;;4.50;4.50;;;;;21.92;44.71;102252.88;5081252;27;45354;-53
2021/10/07 08:14:25;;;;;;;;;3.25;3.25;;;;;21.92;44.64;102250.25;5080648;27;45489;-50
2021/10/07 08:16:51;;;;;;;;;3.25;3.25;;;;;21.91;44.74;102248.53;5078633;27;48995;-54
2021/10/07 08:19:16;;;;;;;;;3.00;3.00;;;;;21.92;44.74;102246.75;5079728;28;45403;-51
2021/10/07 08:21:42;;;;;;;;;4.00;4.00;;;;;21.92;44.75;102254.69;5086968;27;45323;-53
2021/10/07 08:24:10;;;;;;;;;5.00;4.00;;;;;21.92;44.66;102258.16;5099021;27;47060;-53
2021/10/07 08:26:36;;;;;;;;;4.75;4.75;;;;;21.93;44.51;102261.69;5084214;27;45678;-53
2021/10/07 08:29:02;;;;;;;;;3.50;3.50;;;;;21.93;44.67;102254.59;5078737;27;45445;-53
2021/10/07 08:31:27;;;;;;;;;4.00;4.00;;;;;21.93;44.79;102254.59;5077630;27;45505;-54
2021/10/07 08:33:53;;;;;;;;;4.50;3.75;;;;;21.92;44.60;102252.88;5077191;27;46317;-54
2021/10/07 08:36:18;;;;;;;;;2.00;2.00;;;;;21.95;44.70;102258.97;5081876;27;45362;-53
2021/10/07 08:38:44;;;;;;;;;6.00;4.00;;;;;21.97;44.78;102265.06;5083341;27;45188;-53
2021/10/07 08:41:11;;;;;;;;;3.25;3.00;;;;;21.96;44.54;102265.97;5084372;27;45176;-54
2021/10/07 08:43:38;;;;;;;;;3.00;3.00;;;;;21.96;44.63;102263.34;5078275;27;45382;-55
2021/10/07 08:46:08;;;;;;;;;2.75;2.75;;;;;21.97;44.76;102267.69;5075893;28;45438;-54
2021/10/07 08:48:34;;;;;;;;;5.25;3.25;;;;;21.96;44.83;102266.81;5096572;27;45395;-53
2021/10/07 08:51:00;;;;;;;;;4.00;3.00;;;;;21.98;44.75;102277.34;5083578;27;45715;-54
2021/10/07 08:53:25;;;;;;;;;2.75;2.75;;;;;21.97;44.97;102259.78;5084438;27;47263;-54
2021/10/07 08:55:50;;;;;;;;;2.00;2.00;;;;;21.95;44.75;102259.81;5084277;27;45288;-52
2021/10/07 08:58:16;;;;;;;;;4.00;4.00;;;;;21.96;44.95;102264.19;5083972;28;45264;-52
2021/10/07 09:00:41;;;;;;;;;4.00;3.25;;;;;21.97;44.72;102259.78;5084313;27;45231;-54
2021/10/07 09:03:20;;;;;;;;;3.50;3.50;;;;;21.97;44.81;102257.97;5086859;27;45397;-54
2021/10/07 09:05:46;;;;;;;;;5.00;5.00;;;;;21.98;44.71;102257.06;5087543;27;45381;-53
2021/10/07 09:08:14;;;;;;;;;4.00;2.75;;;;;21.96;44.96;102258.06;5087206;27;45252;-55
2021/10/07 09:10:55;;;;;;;;;3.00;3.00;;;;;21.99;44.82;102263.22;5087068;28;45259;-54
2021/10/07 09:13:23;;;;;;;;;3.00;3.00;;;;;21.98;44.83;102264.13;5085869;27;45635;-55
2021/10/07 09:15:54;;;;;;;;;3.00;3.00;;;;;21.99;44.97;102269.34;5086519;27;45255;-53
2021/10/07 09:18:20;;;;;;;;;4.75;3.75;;;;;21.98;44.92;102259.69;5083650;27;45441;-54
2021/10/07 09:20:49;;;;;;;;;5.75;5.25;;;;;22.00;44.74;102270.19;5084708;27;45535;-52
2021/10/07 09:23:20;;;;;;;;;5.00;4.50;;;;;22.01;44.62;102262.22;5085621;27;47266;-51
2021/10/07 09:26:08;;;;;;;;;5.00;5.00;;;;;22.01;44.86;102267.50;5085940;27;45805;-52
2021/10/07 09:28:57;;;;;;;;;4.75;4.75;;;;;22.02;44.89;102260.44;5081855;27;45302;-50
2021/10/07 09:31:28;;;;;;;;;3.25;3.25;;;;;22.02;44.85;102250.75;5084819;28;45597;-52
2021/10/07 09:34:03;;;;;;;;;2.00;2.00;;;;;22.01;45.14;102240.22;5089659;27;45588;-52
2021/10/07 09:36:30;;;;;;;;;3.00;3.00;;;;;22.02;44.96;102239.31;5086808;27;45244;-53
2021/10/07 09:38:56;;;;;;;;;3.75;3.00;;;;;22.02;45.10;102236.69;5085890;27;45303;-51
2021/10/07 09:41:27;;;;;;;;;3.50;3.00;;;;;22.03;44.87;102243.69;5080590;27;45386;-52
2021/10/07 09:43:54;;;;;;;;;4.00;4.00;;;;;22.04;45.00;102245.41;5079858;28;46081;-52
2021/10/07 09:46:47;;;;;;;;;4.50;3.00;;;;;22.04;44.79;102240.13;5079850;27;45664;-54
2021/10/07 09:49:18;;;;;;;;;4.00;3.00;;;;;22.04;44.99;102243.63;5079560;27;45297;-54
2021/10/07 09:51:55;;;;;;;;;3.00;3.00;;;;;22.05;44.93;102241.84;5097615;27;45572;-52
2021/10/07 09:54:31;;;;;;;;;5.50;3.50;;;;;22.06;45.00;102248.84;5088853;27;45478;-54
2021/10/07 09:57:01;;;;;;;;;3.00;2.25;;;;;22.04;44.92;102243.63;5085886;27;45441;-53
2021/10/07 09:59:28;;;;;;;;;5.00;2.25;;;;;22.04;44.92;102241.00;5092867;27;45397;-54
2021/10/07 10:01:56;;;;;;;;;2.25;1.75;;;;;22.04;44.91;102246.28;5090006;28;45730;-50
2021/10/07 10:04:22;;;;;;;;;3.75;3.00;;;;;22.07;44.91;102240.00;5082914;27;46533;-53
2021/10/07 10:06:48;;;;;;;;;4.00;3.00;;;;;22.07;44.62;102235.56;5081630;27;45378;-53
2021/10/07 10:09:13;;;;;;;;;4.00;4.00;;;;;22.06;44.77;102235.66;5080844;27;45307;-58
2021/10/07 10:11:41;;;;;;;;;4.00;3.50;;;;;22.05;44.77;102232.13;5080486;27;45445;-50
2021/10/07 10:14:08;;;;;;;;;4.50;2.00;;;;;22.06;45.03;102233.84;5079077;27;46346;-54
2021/10/07 10:16:35;;;;;;;;;3.00;3.00;;;;;22.06;44.92;102230.38;5079394;27;45377;-52
2021/10/07 10:19:03;;;;;;;;;4.00;4.00;;;;;22.06;45.00;102230.38;5079217;27;45334;-53
2021/10/07 10:21:33;;;;;;;;;1.25;1.25;;;;;22.04;44.82;102227.81;5079834;27;45278;-54
2021/10/07 10:24:00;;;;;;;;;3.00;3.00;;;;;22.07;44.95;102235.56;5079873;28;46830;-56
2021/10/07 10:26:26;;;;;;;;;4.75;3.00;;;;;22.05;44.96;102239.19;5084915;27;45741;-53
2021/10/07 10:28:52;;;;;;;;;7.25;4.00;;;;;22.05;44.90;102234.78;5089644;28;45298;-53
2021/10/07 10:31:35;;;;;;;;;6.00;4.75;;;;;22.05;44.51;102241.84;5090949;27;45010;-53
2021/10/07 10:34:22;;;;;;;;;3.00;3.00;;;;;22.05;44.37;102244.47;5085910;27;45540;-54
2021/10/07 10:36:56;;;;;;;;;5.50;4.50;;;;;22.02;44.20;102234.03;5077274;27;45412;-53
2021/10/07 10:39:29;;;;;;;;;4.00;4.00;;;;;22.01;44.07;102242.88;5077608;27;45455;-47
2021/10/07 10:42:02;;;;;;;;;6.25;5.00;;;;;22.00;43.87;102238.50;5079028;27;45731;-52
2021/10/07 10:44:30;;;;;;;;;7.00;4.50;;;;;21.98;43.91;102235.09;5078243;28;45733;-51
2021/10/07 10:47:07;;;;;;;;;4.25;4.25;;;;;21.97;43.38;102225.47;5077810;28;45877;-50
2021/10/07 10:49:51;;;;;;;;;5.00;4.00;;;;;21.96;43.44;102231.66;5078508;28;45378;-49
2021/10/07 10:52:24;;;;;;;;;6.00;4.75;;;;;21.95;43.55;102229.94;5078298;27;45462;-54
2021/10/07 10:54:59;;;;;;;;;6.25;3.50;;;;;21.92;43.67;102225.63;5084725;27;47070;-54
2021/10/07 10:57:28;;;;;;;;;5.75;4.25;;;;;21.90;43.54;102233.59;5066439;27;45528;-54
2021/10/07 11:00:12;;;;;;;;;6.25;6.00;;;;;21.89;43.36;102239.78;5070264;28;45443;-56
2021/10/07 11:02:46;;;;;;;;;6.00;3.75;;;;;21.85;43.36;102238.22;5057563;28;45469;-52
2021/10/07 11:05:13;;;;;;;;;5.25;4.00;;;;;21.85;43.56;102235.56;5056322;28;46365;-52
2021/10/07 11:07:39;;;;;;;;;4.00;3.50;;;;;21.83;43.37;102232.13;5057719;28;45857;-51
2021/10/07 11:10:07;;;;;;;;;7.25;5.00;;;;;21.84;43.41;102238.25;5056492;28;45716;-53
2021/10/07 11:12:41;;;;;;;;;3.75;3.75;;;;;21.83;43.13;102232.13;5057864;28;45580;-53
2021/10/07 11:15:11;;;;;;;;;9.25;4.25;;;;;21.82;43.41;102230.41;5057463;28;46045;-51
2021/10/07 11:17:39;;;;;;;;;5.50;5.50;;;;;21.84;43.41;102239.13;5056059;28;45344;-50
2021/10/07 11:20:06;;;;;;;;;4.75;4.75;;;;;21.85;42.96;102230.28;5073255;27;45382;-50
2021/10/07 11:22:31;;;;;;;;;6.00;4.75;;;;;21.85;42.72;102230.28;5057827;28;45586;-54
2021/10/07 11:24:58;;;;;;;;;4.25;4.00;;;;;21.86;42.56;102221.47;5056562;28;45467;-54
2021/10/07 11:27:41;;;;;;;;;9.25;6.25;;;;;21.86;42.72;102234.66;5057887;28;45442;-51
2021/10/07 11:30:14;;;;;;;;;7.75;6.00;;;;;21.85;42.60;102234.69;5056164;28;45291;-53